Time;durP1;ratioP1;P1;durP2;ratioP2;P2;SDS_P1;SDS_P2;PMS_P1;PMS_P2;Temp;Humidity;BMP_temperature;BMP_pressure;BME280_temperature;BME280_humidity;BME280_pressure;Samples;Min_cycle;Max_cycle;Signal;HPM_P1;HPM_P2
2023/08/28 00:01:01;;;;;;;3.83;2.00;;;15.30;40.70;;;;;;7389231;19;20458;-70
2023/08/28 00:03:31;;;;;;;4.97;2.10;;;15.20;33.70;;;;;;7391669;19;20432;-70
2023/08/28 00:06:01;;;;;;;5.22;2.00;;;15.30;35.40;;;;;;7392856;19;20037;-70
2023/08/28 00:08:33;;;;;;;4.28;2.08;;;15.20;37.30;;;;;;7390066;19;20035;-70
2023/08/28 00:11:03;;;;;;;2.47;1.90;;;15.20;40.40;;;;;;7391040;19;20015;-69
2023/08/28 00:13:33;;;;;;;2.38;2.00;;;15.10;40.30;;;;;;7394954;19;20030;-70
2023/08/28 00:16:03;;;;;;;4.88;2.25;;;15.10;45.40;;;;;;7394498;19;20023;-70
2023/08/28 00:18:33;;;;;;;4.07;1.98;;;15.10;52.00;;;;;;7396352;19;20019;-71
2023/08/28 00:21:04;;;;;;;2.88;2.13;;;15.00;52.60;;;;;;7391174;19;20032;-71
2023/08/28 00:23:36;;;;;;;3.72;2.20;;;15.10;54.20;;;;;;7392121;19;20010;-70
2023/08/28 00:26:06;;;;;;;5.00;2.10;;;15.00;52.80;;;;;;7392790;19;20023;-70
2023/08/28 00:28:37;;;;;;;3.25;1.83;;;15.00;55.00;;;;;;7392308;19;20023;-71
2023/08/28 00:31:07;;;;;;;6.13;2.20;;;15.20;60.10;;;;;;7389111;19;20120;-70
2023/08/28 00:33:37;;;;;;;3.72;2.15;;;15.10;55.80;;;;;;7391877;19;20395;-71
2023/08/28 00:36:11;;;;;;;3.20;2.10;;;15.00;55.60;;;;;;7391476;19;20017;-70
2023/08/28 00:38:44;;;;;;;3.75;2.20;;;15.00;57.70;;;;;;7392429;19;20014;-70
2023/08/28 00:41:14;;;;;;;2.63;1.95;;;15.00;61.20;;;;;;7390288;19;20014;-70
2023/08/28 00:43:44;;;;;;;3.08;2.25;;;15.00;68.00;;;;;;7391987;19;20021;-70
2023/08/28 00:46:14;;;;;;;4.13;2.30;;;15.00;73.30;;;;;;7397111;19;20027;-70
2023/08/28 00:48:44;;;;;;;3.28;2.63;;;15.00;74.30;;;;;;7398413;19;20014;-69
2023/08/28 00:51:14;;;;;;;4.45;2.40;;;15.00;81.90;;;;;;7394779;19;20031;-67
2023/08/28 00:53:47;;;;;;;3.58;2.58;;;15.10;80.40;;;;;;7394797;19;20017;-69
2023/08/28 00:56:17;;;;;;;8.52;2.50;;;15.10;67.90;;;;;;7393126;19;20360;-69
2023/08/28 00:58:46;;;;;;;3.90;2.33;;;15.00;56.10;;;;;;7391640;19;20538;-70
2023/08/28 01:01:16;;;;;;;4.72;2.38;;;15.00;53.20;;;;;;7389885;19;20014;-70
2023/08/28 01:03:46;;;;;;;5.32;2.33;;;15.00;45.90;;;;;;7390375;19;20045;-71
2023/08/28 01:06:24;;;;;;;5.18;2.50;;;15.00;39.00;;;;;;7394023;19;20019;-70
2023/08/28 01:09:08;;;;;;;3.83;2.30;;;15.00;38.30;;;;;;7395179;19;20011;-70
2023/08/28 01:11:47;;;;;;;4.85;2.00;;;15.00;36.50;;;;;;7392462;19;20014;-68
2023/08/28 01:14:21;;;;;;;3.65;2.20;;;15.10;42.40;;;;;;7394504;19;20031;-70
2023/08/28 01:16:52;;;;;;;;;;;15.10;42.80;;;;;;7394386;19;20531;-70
2023/08/28 01:19:30;;;;;;;3.90;1.83;;;15.00;42.20;;;;;;7394969;19;19918;-70
2023/08/28 01:22:11;;;;;;;5.28;2.13;;;15.00;34.70;;;;;;7394244;19;20010;-70
2023/08/28 01:24:48;;;;;;;6.75;2.30;;;15.10;38.60;;;;;;7392156;19;20355;-70
2023/08/28 01:27:20;;;;;;;5.50;2.20;;;15.10;36.20;;;;;;7393254;19;20026;-69
2023/08/28 01:30:09;;;;;;;3.53;2.10;;;15.00;34.30;;;;;;7393753;19;20074;-70
2023/08/28 01:32:40;;;;;;;2.80;2.05;;;15.00;41.30;;;;;;7393731;19;20006;-70
2023/08/28 01:35:13;;;;;;;3.03;2.25;;;15.00;39.20;;;;;;7392784;19;20011;-69
2023/08/28 01:37:56;;;;;;;6.78;2.03;;;15.00;42.50;;;;;;7391701;19;20006;-70
2023/08/28 01:40:32;;;;;;;3.70;2.25;;;15.00;46.10;;;;;;7392861;19;20021;-70
2023/08/28 01:43:06;;;;;;;5.30;2.20;;;15.00;42.90;;;;;;7393772;19;20027;-69
2023/08/28 01:45:37;;;;;;;5.70;2.40;;;15.00;39.70;;;;;;7393154;19;20039;-70
2023/08/28 01:48:08;;;;;;;2.70;1.90;;;15.00;38.30;;;;;;7393213;19;20116;-70
2023/08/28 01:50:38;;;;;;;5.63;2.00;;;15.00;31.30;;;;;;7392432;19;20373;-69
2023/08/28 01:53:07;;;;;;;2.38;1.83;;;15.00;26.50;;;;;;7392467;19;20019;-69
2023/08/28 01:56:25;;;;;;;4.32;1.80;;;15.00;28.30;;;;;;7392581;19;20018;-69
2023/08/28 01:59:02;;;;;;;5.47;2.08;;;15.00;27.50;;;;;;7393309;19;20025;-69
2023/08/28 02:01:32;;;;;;;3.10;1.88;;;15.00;33.40;;;;;;7391302;19;20014;-70
2023/08/28 02:04:02;;;;;;;5.75;1.92;;;14.90;35.30;;;;;;7391060;19;20042;-70
2023/08/28 02:06:32;;;;;;;6.50;2.08;;;15.00;34.40;;;;;;7392391;19;20090;-69
2023/08/28 02:09:02;;;;;;;2.47;1.83;;;15.10;35.90;;;;;;7392438;19;20035;-70
2023/08/28 02:11:32;;;;;;;4.00;2.22;;;15.00;34.90;;;;;;7390720;19;20467;-70
2023/08/28 02:14:05;;;;;;;4.60;2.17;;;14.90;35.40;;;;;;7390475;19;20027;-70
2023/08/28 02:16:40;;;;;;;4.47;2.30;;;14.90;43.20;;;;;;7390672;19;20022;-70
2023/08/28 02:19:10;;;;;;;5.88;2.60;;;14.90;44.80;;;;;;7392326;19;20015;-69
2023/08/28 02:21:40;;;;;;;3.80;2.30;;;14.80;43.20;;;;;;7390244;19;20035;-70
2023/08/28 02:24:10;;;;;;;2.42;1.88;;;14.70;49.10;;;;;;7391602;19;20014;-70
2023/08/28 02:26:40;;;;;;;2.88;2.03;;;14.70;45.80;;;;;;7391687;19;20042;-70
2023/08/28 02:29:12;;;;;;;5.53;2.00;;;14.80;41.30;;;;;;7391454;19;20474;-70
2023/08/28 02:31:43;;;;;;;4.15;2.28;;;14.80;40.90;;;;;;7390467;19;20018;-70
2023/08/28 02:34:12;;;;;;;3.28;2.03;;;14.80;41.80;;;;;;7390966;19;20438;-71
2023/08/28 02:36:42;;;;;;;3.88;2.13;;;14.80;43.10;;;;;;7390202;19;20014;-70
2023/08/28 02:39:13;;;;;;;6.43;2.03;;;14.80;47.80;;;;;;7391287;19;20485;-69
2023/08/28 02:41:43;;;;;;;3.55;2.40;;;14.70;47.10;;;;;;7390001;19;20018;-70
2023/08/28 02:44:15;;;;;;;4.15;2.17;;;14.70;45.70;;;;;;7390717;19;20850;-69
2023/08/28 02:46:45;;;;;;;5.38;2.35;;;14.70;50.70;;;;;;7390606;19;20082;-70
2023/08/28 02:49:15;;;;;;;4.95;2.40;;;14.70;44.70;;;;;;7394168;19;20024;-69
2023/08/28 02:51:45;;;;;;;8.05;2.20;;;14.70;45.00;;;;;;7397111;19;20382;-70
2023/08/28 02:54:15;;;;;;;3.95;2.28;;;14.80;43.40;;;;;;7395782;19;20510;-70
2023/08/28 02:56:45;;;;;;;3.20;2.13;;;14.70;46.20;;;;;;7397046;19;20014;-69
2023/08/28 02:59:18;;;;;;;3.53;2.22;;;14.70;52.20;;;;;;7398476;19;20033;-69
2023/08/28 03:01:48;;;;;;;4.38;2.58;;;14.70;50.60;;;;;;7396114;19;20027;-70
2023/08/28 03:04:18;;;;;;;3.10;2.00;;;14.70;51.20;;;;;;7398272;19;20007;-70
2023/08/28 03:06:47;;;;;;;3.00;2.42;;;14.70;47.10;;;;;;7397825;19;20518;-70
2023/08/28 03:09:18;;;;;;;4.72;2.60;;;14.60;51.90;;;;;;7398466;19;20085;-70
2023/08/28 03:11:48;;;;;;;7.68;2.58;;;14.60;62.20;;;;;;7396205;19;20092;-70
2023/08/28 03:14:20;;;;;;;2.63;2.28;;;14.50;62.60;;;;;;7398316;19;20014;-70
2023/08/28 03:16:50;;;;;;;4.45;2.33;;;14.50;65.30;;;;;;7396382;19;20358;-69
2023/08/28 03:19:20;;;;;;;2.13;1.85;;;14.50;67.20;;;;;;7397930;19;20020;-69
2023/08/28 03:21:50;;;;;;;2.67;2.10;;;14.50;63.20;;;;;;7395649;19;20034;-70
2023/08/28 03:24:20;;;;;;;4.32;2.42;;;14.50;65.60;;;;;;7397785;19;20014;-70
2023/08/28 03:26:50;;;;;;;3.83;2.03;;;14.40;66.40;;;;;;7396649;19;20458;-70
2023/08/28 03:29:23;;;;;;;4.60;2.88;;;14.40;74.40;;;;;;7397952;19;20074;-70
2023/08/28 03:31:53;;;;;;;4.95;2.50;;;14.40;80.60;;;;;;7393824;19;20078;-70
2023/08/28 03:34:23;;;;;;;3.05;2.60;;;14.30;90.20;;;;;;7398301;19;20014;-70
2023/08/28 03:36:53;;;;;;;3.55;2.50;;;14.30;91.30;;;;;;7396768;19;20060;-70
2023/08/28 03:39:23;;;;;;;4.88;2.80;;;14.30;93.40;;;;;;7398619;19;20092;-70
2023/08/28 03:41:52;;;;;;;3.15;2.60;;;14.30;95.40;;;;;;7395601;19;20020;-70
2023/08/28 03:44:25;;;;;;;7.47;3.08;;;14.40;95.90;;;;;;7398059;19;20014;-70
2023/08/28 03:46:55;;;;;;;4.60;2.80;;;14.40;97.30;;;;;;7397772;19;20459;-70
2023/08/28 03:49:25;;;;;;;4.85;2.92;;;14.30;96.30;;;;;;7398397;19;20070;-69
2023/08/28 03:51:55;;;;;;;4.90;3.22;;;14.30;98.80;;;;;;7393065;19;20419;-69
2023/08/28 03:54:25;;;;;;;3.83;3.17;;;14.40;99.90;;;;;;7398153;19;20081;-70
2023/08/28 03:56:55;;;;;;;7.78;3.20;;;14.30;99.90;;;;;;7396652;19;20015;-71
2023/08/28 03:59:27;;;;;;;5.18;3.00;;;14.30;99.90;;;;;;7397647;19;20097;-71
2023/08/28 04:01:57;;;;;;;6.10;3.40;;;14.20;99.90;;;;;;7394027;19;20113;-70
2023/08/28 04:04:27;;;;;;;5.47;3.58;;;14.30;99.90;;;;;;7397340;19;20478;-69
2023/08/28 04:07:01;;;;;;;4.68;3.40;;;14.30;99.90;;;;;;7397448;19;20021;-69
2023/08/28 04:09:31;;;;;;;;;;;14.30;99.90;;;;;;7395917;19;20502;-69
2023/08/28 04:12:01;;;;;;;8.48;3.65;;;14.30;99.90;;;;;;7392949;19;20340;-69
2023/08/28 04:14:33;;;;;;;4.38;3.20;;;14.20;99.90;;;;;;7392411;19;20018;-69
2023/08/28 04:17:03;;;;;;;5.10;3.70;;;14.20;99.90;;;;;;7392875;19;20035;-69
2023/08/28 04:19:33;;;;;;;4.90;3.65;;;14.30;99.90;;;;;;7393126;19;20014;-70
2023/08/28 04:22:03;;;;;;;5.20;4.05;;;14.30;99.90;;;;;;7392841;19;20519;-69
2023/08/28 04:24:33;;;;;;;6.57;4.07;;;14.30;99.90;;;;;;7392032;19;20113;-69
2023/08/28 04:27:04;;;;;;;10.65;3.88;;;14.20;99.90;;;;;;7393215;19;20018;-70
2023/08/28 04:29:36;;;;;;;4.68;4.07;;;14.30;99.90;;;;;;7394880;19;20014;-70
2023/08/28 04:32:07;;;;;;;17.13;4.65;;;14.20;99.90;;;;;;7396932;19;20362;-70
2023/08/28 04:34:37;;;;;;;7.80;4.18;;;14.30;99.90;;;;;;7395747;19;20006;-70
2023/08/28 04:37:07;;;;;;;9.10;4.88;;;14.30;99.90;;;;;;7393702;19;20023;-69
2023/08/28 04:39:37;;;;;;;4.15;3.63;;;14.30;99.90;;;;;;7392201;19;20011;-69
2023/08/28 04:42:07;;;;;;;8.27;4.22;;;14.20;99.90;;;;;;7392678;19;20018;-69
2023/08/28 04:44:40;;;;;;;5.78;3.42;;;14.30;99.90;;;;;;7392037;19;20097;-69
2023/08/28 04:47:10;;;;;;;4.68;3.72;;;14.20;99.90;;;;;;7391211;19;20082;-69
2023/08/28 04:49:40;;;;;;;5.68;4.00;;;14.30;99.90;;;;;;7394917;19;20478;-70
2023/08/28 04:52:10;;;;;;;6.35;4.05;;;14.30;99.90;;;;;;7395901;19;20014;-69
2023/08/28 04:54:40;;;;;;;5.78;4.15;;;14.30;99.90;;;;;;7395071;19;20089;-68
2023/08/28 04:57:09;;;;;;;6.40;4.60;;;14.30;99.90;;;;;;7395400;19;20082;-67
2023/08/28 04:59:42;;;;;;;5.00;4.10;;;14.20;99.90;;;;;;7395893;19;20074;-69
2023/08/28 05:02:12;;;;;;;6.38;4.57;;;14.20;99.90;;;;;;7391601;19;20039;-69
2023/08/28 05:04:42;;;;;;;5.13;4.63;;;14.20;99.90;;;;;;7391286;19;20014;-70
2023/08/28 05:07:12;;;;;;;7.53;3.97;;;14.20;99.90;;;;;;7391829;19;20038;-70
2023/08/28 05:09:41;;;;;;;5.45;4.25;;;14.20;99.90;;;;;;7391620;19;20011;-71
2023/08/28 05:12:11;;;;;;;5.47;4.40;;;14.20;99.90;;;;;;7389826;19;20077;-69
2023/08/28 05:14:44;;;;;;;8.90;4.47;;;14.20;99.90;;;;;;7390523;19;20482;-70
2023/08/28 05:17:14;;;;;;;7.13;4.45;;;14.20;99.90;;;;;;7391298;19;20081;-70
2023/08/28 05:19:43;;;;;;;8.73;4.65;;;14.20;99.90;;;;;;7390662;19;20085;-70
2023/08/28 05:22:13;;;;;;;7.03;4.00;;;14.10;99.90;;;;;;7391515;19;20026;-70
2023/08/28 05:24:43;;;;;;;8.88;4.30;;;14.20;99.90;;;;;;7390652;19;20014;-69
2023/08/28 05:27:13;;;;;;;5.63;4.20;;;14.20;99.90;;;;;;7391000;19;20497;-68
2023/08/28 05:29:46;;;;;;;7.03;4.40;;;14.20;99.90;;;;;;7389933;19;20035;-69
2023/08/28 05:32:16;;;;;;;5.97;4.20;;;14.30;99.90;;;;;;7391026;19;20030;-70
2023/08/28 05:34:46;;;;;;;6.95;4.07;;;14.20;99.90;;;;;;7389853;19;20018;-69
2023/08/28 05:37:19;;;;;;;5.88;4.50;;;14.20;99.90;;;;;;7389482;19;20015;-69
2023/08/28 05:39:50;;;;;;;5.75;4.40;;;14.20;99.90;;;;;;7389829;19;20074;-70
2023/08/28 05:42:20;;;;;;;6.90;4.60;;;14.20;99.90;;;;;;7390252;19;20601;-70
2023/08/28 05:44:52;;;;;;;7.95;4.50;;;14.20;99.90;;;;;;7389888;19;20019;-70
2023/08/28 05:47:22;;;;;;;10.57;4.63;;;14.20;99.90;;;;;;7393826;19;20023;-70
2023/08/28 05:49:52;;;;;;;7.88;4.28;;;14.30;99.90;;;;;;7388403;19;20090;-70
2023/08/28 05:52:22;;;;;;;6.82;4.35;;;14.20;99.90;;;;;;7389507;19;20574;-68
2023/08/28 05:54:52;;;;;;;4.90;3.85;;;14.20;99.90;;;;;;7389993;19;20069;-69
2023/08/28 05:57:23;;;;;;;6.05;4.57;;;14.20;99.90;;;;;;7389838;19;20018;-70
2023/08/28 05:59:55;;;;;;;6.60;4.18;;;14.30;99.90;;;;;;7389243;19;20018;-70
2023/08/28 06:02:25;;;;;;;6.45;4.40;;;14.20;99.90;;;;;;7390174;19;20414;-70
2023/08/28 06:04:55;;;;;;;8.02;5.72;;;14.30;99.90;;;;;;7388903;19;20034;-70
2023/08/28 06:07:26;;;;;;;6.82;4.60;;;14.30;99.90;;;;;;7389258;19;20025;-70
2023/08/28 06:09:55;;;;;;;9.55;5.03;;;14.30;99.90;;;;;;7389253;19;20028;-69
2023/08/28 06:12:25;;;;;;;7.15;5.32;;;14.40;99.90;;;;;;7389651;19;20417;-70
2023/08/28 06:14:58;;;;;;;7.53;5.57;;;14.40;99.90;;;;;;7388686;19;20073;-68
2023/08/28 06:17:28;;;;;;;7.57;5.57;;;14.30;99.90;;;;;;7389104;19;20011;-70
2023/08/28 06:19:58;;;;;;;6.75;5.93;;;14.30;99.90;;;;;;7387502;19;20026;-69
2023/08/28 06:22:29;;;;;;;10.55;6.07;;;14.40;99.90;;;;;;7389676;19;20018;-70
2023/08/28 06:24:59;;;;;;;12.05;6.22;;;14.40;99.90;;;;;;7388012;19;20010;-69
2023/08/28 06:27:29;;;;;;;8.30;6.30;;;14.40;99.90;;;;;;7389148;19;20015;-70
2023/08/28 06:30:03;;;;;;;8.55;6.20;;;14.40;99.90;;;;;;7389071;19;20070;-69
2023/08/28 06:32:34;;;;;;;9.40;7.47;;;14.40;99.90;;;;;;7389040;19;20509;-69
2023/08/28 06:35:04;;;;;;;9.60;6.72;;;14.40;99.90;;;;;;7387366;19;20105;-69
2023/08/28 06:37:34;;;;;;;10.55;6.90;;;14.50;99.90;;;;;;7388983;19;20035;-69
2023/08/28 06:40:08;;;;;;;8.15;6.85;;;14.60;99.90;;;;;;7386260;19;20438;-71
2023/08/28 06:42:38;;;;;;;;;;;14.60;99.90;;;;;;7388381;19;20124;-69
2023/08/28 06:45:11;;;;;;;9.68;6.03;;;14.50;99.90;;;;;;7387146;19;19926;-69
2023/08/28 06:47:41;;;;;;;6.93;5.93;;;14.60;99.90;;;;;;7391476;19;20007;-69
2023/08/28 06:50:12;;;;;;;8.38;6.78;;;14.70;99.90;;;;;;7386873;19;20503;-69
2023/08/28 06:52:42;;;;;;;12.27;7.28;;;14.70;99.90;;;;;;7387791;19;20015;-69
2023/08/28 06:55:12;;;;;;;9.10;7.22;;;14.80;99.90;;;;;;7387597;19;20046;-68
2023/08/28 06:57:42;;;;;;;11.00;6.78;;;14.80;99.90;;;;;;7387590;19;20018;-69
2023/08/28 07:00:16;;;;;;;8.82;7.05;;;14.90;99.90;;;;;;7385670;19;20087;-69
2023/08/28 07:02:46;;;;;;;7.80;7.00;;;14.80;99.90;;;;;;7385912;19;20487;-69
2023/08/28 07:05:16;;;;;;;8.90;6.03;;;14.80;99.90;;;;;;7387771;19;20015;-69
2023/08/28 07:07:46;;;;;;;9.05;7.03;;;14.70;99.90;;;;;;7387938;19;20014;-70
2023/08/28 07:10:16;;;;;;;7.55;6.03;;;14.80;99.90;;;;;;7387058;19;20038;-70
2023/08/28 07:12:47;;;;;;;9.82;6.57;;;14.80;99.90;;;;;;7387930;19;20096;-69
2023/08/28 07:15:56;;;;;;;9.88;6.80;;;14.90;99.90;;;;;;7385179;19;20057;-69
2023/08/28 07:18:28;;;;;;;8.02;6.35;;;14.90;99.90;;;;;;7386097;19;20010;-69
2023/08/28 07:20:59;;;;;;;12.65;7.03;;;14.90;99.90;;;;;;7385597;19;20042;-72
2023/08/28 07:23:29;;;;;;;9.18;6.22;;;14.80;99.60;;;;;;7385048;19;20010;-71
2023/08/28 07:26:02;;;;;;;7.75;6.57;;;14.90;97.90;;;;;;7387412;19;20010;-70
2023/08/28 07:28:32;;;;;;;8.35;5.65;;;14.90;91.20;;;;;;7388737;19;20031;-70
2023/08/28 07:31:03;;;;;;;7.90;5.93;;;14.80;88.60;;;;;;7385864;19;20032;-70
2023/08/28 07:33:37;;;;;;;6.75;5.47;;;15.00;89.00;;;;;;7386965;19;20018;-70
2023/08/28 07:36:07;;;;;;;8.10;5.82;;;15.00;78.70;;;;;;7388981;19;20021;-70
2023/08/28 07:38:37;;;;;;;8.20;5.53;;;15.00;80.90;;;;;;7392967;19;20432;-70
2023/08/28 07:41:07;;;;;;;7.03;5.57;;;14.90;74.60;;;;;;7392039;19;20615;-70
2023/08/28 07:43:37;;;;;;;7.00;5.60;;;14.90;72.20;;;;;;7393649;19;20034;-69
2023/08/28 07:46:07;;;;;;;5.93;5.32;;;14.90;67.80;;;;;;7394832;19;20007;-70
2023/08/28 07:48:40;;;;;;;7.88;5.50;;;14.90;66.10;;;;;;7394275;19;20042;-69
2023/08/28 07:51:12;;;;;;;5.55;5.05;;;15.00;69.90;;;;;;7392850;19;20047;-69
2023/08/28 07:53:42;;;;;;;10.52;5.78;;;15.00;57.70;;;;;;7392479;19;20010;-70
2023/08/28 07:56:14;;;;;;;7.32;5.35;;;15.00;66.90;;;;;;7395048;19;20074;-70
2023/08/28 07:58:45;;;;;;;6.15;5.10;;;15.20;57.00;;;;;;7392061;19;20047;-71
2023/08/28 08:01:15;;;;;;;6.32;5.25;;;15.10;39.50;;;;;;7390642;19;20034;-70
2023/08/28 08:03:47;;;;;;;7.35;4.90;;;15.30;49.90;;;;;;7393185;19;20018;-71
2023/08/28 08:06:17;;;;;;;6.80;4.50;;;15.50;33.70;;;;;;7393953;19;20014;-70
2023/08/28 08:08:48;;;;;;;12.68;5.30;;;15.40;30.30;;;;;;7393294;19;20020;-70
2023/08/28 08:11:18;;;;;;;5.85;4.70;;;15.40;25.40;;;;;;7392187;19;20656;-69
2023/08/28 08:13:48;;;;;;;6.10;4.22;;;15.40;20.00;;;;;;7398297;19;20049;-68
2023/08/28 08:16:18;;;;;;;7.32;4.53;;;15.50;23.60;;;;;;7397604;19;20007;-69
2023/08/28 08:18:50;;;;;;;6.80;4.38;;;15.50;20.30;;;;;;7395748;19;20088;-70
2023/08/28 08:21:22;;;;;;;5.85;4.15;;;15.30;17.50;;;;;;7392081;19;20292;-68
2023/08/28 08:23:52;;;;;;;4.70;4.05;;;15.50;19.20;;;;;;7393406;19;20027;-68
2023/08/28 08:26:22;;;;;;;4.95;4.43;;;15.60;16.60;;;;;;7393467;19;20007;-70
2023/08/28 08:28:52;;;;;;;8.05;4.30;;;15.50;11.10;;;;;;7394129;19;20640;-68
2023/08/28 08:31:22;;;;;;;7.35;4.32;;;15.60;8.60;;;;;;7392265;19;20040;-69
2023/08/28 08:33:55;;;;;;;7.20;4.53;;;15.60;2.50;;;;;;7393086;19;20471;-69
2023/08/28 08:36:25;;;;;;;5.10;3.75;;;15.70;1.00;;;;;;7393458;19;20010;-70
2023/08/28 08:38:55;;;;;;;6.95;3.70;;;15.70;1.00;;;;;;7391264;19;20021;-70
2023/08/28 08:41:25;;;;;;;5.10;3.38;;;15.60;1.00;;;;;;7389898;19;20025;-69
2023/08/28 08:43:55;;;;;;;5.57;2.88;;;15.80;1.00;;;;;;7391112;19;20031;-70
2023/08/28 08:46:26;;;;;;;3.33;2.67;;;15.90;1.00;;;;;;7393587;19;20086;-69
2023/08/28 08:49:03;;;;;;;4.30;2.92;;;16.00;1.00;;;;;;7391062;19;20483;-69
2023/08/28 08:51:34;;;;;;;3.40;2.65;;;16.00;1.00;;;;;;7389683;19;20028;-69
2023/08/28 08:54:09;;;;;;;3.17;2.05;;;16.20;1.00;;;;;;7389331;19;20039;-70
2023/08/28 08:56:43;;;;;;;3.67;2.08;;;15.90;1.00;;;;;;7390039;19;20053;-70
2023/08/28 08:59:13;;;;;;;2.30;2.08;;;16.00;1.00;;;;;;7390055;19;20061;-69
2023/08/28 09:01:44;;;;;;;6.57;2.60;;;15.90;1.00;;;;;;7386566;19;20018;-71
2023/08/28 09:04:17;;;;;;;3.25;1.92;;;16.10;1.00;;;;;;7389482;19;20044;-69
2023/08/28 09:06:49;;;;;;;3.47;2.28;;;16.00;1.00;;;;;;7390296;19;20014;-71
2023/08/28 09:09:19;;;;;;;2.38;1.85;;;15.90;1.00;;;;;;7389313;19;20014;-70
2023/08/28 09:11:49;;;;;;;5.60;1.92;;;16.00;1.00;;;;;;7387947;19;20011;-70
2023/08/28 09:14:19;;;;;;;2.97;2.08;;;16.00;1.00;;;;;;7389619;19;20010;-69
2023/08/28 09:16:49;;;;;;;3.35;1.90;;;16.20;1.00;;;;;;7389378;19;20014;-70
2023/08/28 09:19:22;;;;;;;2.30;1.73;;;16.30;1.00;;;;;;7390096;19;20361;-70
2023/08/28 09:21:52;;;;;;;6.45;1.83;;;16.20;1.00;;;;;;7388656;19;20011;-70
2023/08/28 09:24:25;;;;;;;4.53;1.95;;;16.30;1.00;;;;;;7393215;19;20014;-69
2023/08/28 09:26:56;;;;;;;4.05;2.10;;;16.40;1.00;;;;;;7393578;19;20331;-70
2023/08/28 09:29:26;;;;;;;2.08;1.58;;;16.30;1.00;;;;;;7393760;19;20018;-70
2023/08/28 09:32:04;;;;;;;2.75;2.05;;;16.10;1.00;;;;;;7390967;19;20085;-70
2023/08/28 09:34:42;;;;;;;2.13;1.60;;;16.20;1.00;;;;;;7387797;19;20007;-70
2023/08/28 09:37:12;;;;;;;2.28;1.50;;;16.10;1.00;;;;;;7393117;19;20014;-70
2023/08/28 09:39:43;;;;;;;3.58;1.70;;;16.30;1.00;;;;;;7387495;19;20214;-68
2023/08/28 09:42:14;;;;;;;3.58;1.42;;;16.20;1.00;;;;;;7387810;19;20105;-70
2023/08/28 09:44:51;;;;;;;3.67;1.70;;;16.10;1.00;;;;;;7389449;19;20015;-69
2023/08/28 09:47:23;;;;;;;2.17;1.48;;;16.10;1.00;;;;;;7392517;19;20011;-69
2023/08/28 09:49:55;;;;;;;4.05;1.73;;;16.60;1.00;;;;;;7389931;19;20046;-69
2023/08/28 09:52:29;;;;;;;2.28;1.60;;;16.50;1.00;;;;;;7390232;19;20078;-70
2023/08/28 09:55:07;;;;;;;2.43;2.23;;;16.60;1.00;;;;;;7390951;19;20013;-68
2023/08/28 09:57:37;;;;;;;2.55;1.58;;;16.50;1.00;;;;;;7393248;19;20018;-70
2023/08/28 10:00:09;;;;;;;2.85;1.58;;;16.50;1.00;;;;;;7391679;19;20488;-69
2023/08/28 10:02:39;;;;;;;2.15;1.40;;;16.60;1.00;;;;;;7393204;19;20082;-70
2023/08/28 10:05:12;;;;;;;1.83;1.48;;;16.80;1.00;;;;;;7391866;19;20481;-69
2023/08/28 10:07:46;;;;;;;2.15;1.33;;;17.00;1.00;;;;;;7387487;19;20393;-70
2023/08/28 10:10:18;;;;;;;4.43;1.67;;;17.20;1.00;;;;;;7387580;19;20078;-70
2023/08/28 10:12:52;;;;;;;3.30;1.98;;;17.00;1.00;;;;;;7387756;19;20538;-71
2023/08/28 10:15:23;;;;;;;3.35;1.90;;;17.10;1.00;;;;;;7391196;19;20463;-71
2023/08/28 10:17:54;;;;;;;2.10;1.88;;;17.20;1.00;;;;;;7385902;19;20014;-69
2023/08/28 10:20:28;;;;;;;3.35;1.90;;;17.40;1.00;;;;;;7389822;19;20114;-70
2023/08/28 10:22:59;;;;;;;5.88;2.33;;;17.70;1.00;;;;;;7388643;19;20085;-69
2023/08/28 10:25:34;;;;;;;3.78;2.00;;;17.50;1.00;;;;;;7389997;19;20493;-69
2023/08/28 10:28:04;;;;;;;4.15;1.83;;;17.60;1.00;;;;;;7389760;19;20011;-71
2023/08/28 10:30:36;;;;;;;5.38;2.00;;;17.20;1.00;;;;;;7389260;19;20028;-69
2023/08/28 10:33:12;;;;;;;4.55;2.25;;;17.70;1.00;;;;;;7388369;19;20499;-71
2023/08/28 10:35:47;;;;;;;3.50;1.98;;;17.70;1.00;;;;;;7389523;19;20015;-69
2023/08/28 10:38:19;;;;;;;3.65;1.77;;;17.70;1.00;;;;;;7391039;19;20475;-70
2023/08/28 10:40:50;;;;;;;5.00;1.70;;;17.70;1.00;;;;;;7388203;19;20466;-69
2023/08/28 10:43:22;;;;;;;3.72;1.75;;;17.70;1.00;;;;;;7390793;19;20014;-70
2023/08/28 10:45:54;;;;;;;3.25;1.50;;;17.60;1.00;;;;;;7391375;19;20010;-70
2023/08/28 10:48:25;;;;;;;2.67;1.52;;;18.00;1.00;;;;;;7392135;19;20190;-69
2023/08/28 10:51:02;;;;;;;1.88;1.33;;;17.80;1.00;;;;;;7388148;19;20047;-69
2023/08/28 10:53:32;;;;;;;2.90;1.75;;;17.80;1.00;;;;;;7391406;19;20417;-69
2023/08/28 10:56:03;;;;;;;2.00;1.58;;;17.70;1.00;;;;;;7390913;19;20081;-69
2023/08/28 10:58:33;;;;;;;2.17;1.42;;;18.10;1.00;;;;;;7390249;19;20078;-71
2023/08/28 11:01:16;;;;;;;2.47;1.30;;;17.60;1.00;;;;;;7387572;19;20034;-70
2023/08/28 11:03:58;;;;;;;3.40;1.63;;;17.40;1.00;;;;;;7390029;19;20340;-71
2023/08/28 11:06:42;;;;;;;3.22;1.30;;;17.80;1.00;;;;;;7388787;19;20010;-69
2023/08/28 11:09:37;;;;;;;3.53;1.40;;;18.00;1.00;;;;;;7387710;19;20020;-70
2023/08/28 11:12:26;;;;;;;2.58;1.58;;;18.00;1.00;;;;;;7393354;19;20394;-71
2023/08/28 11:15:05;;;;;;;1.95;1.30;;;18.10;1.00;;;;;;7395725;19;20090;-71
2023/08/28 11:17:38;;;;;;;3.05;1.48;;;18.00;1.00;;;;;;7398241;19;20010;-71
2023/08/28 11:20:11;;;;;;;2.78;1.10;;;18.00;1.00;;;;;;7392975;19;20474;-71
2023/08/28 11:22:48;;;;;;;2.03;1.05;;;17.70;1.00;;;;;;7394062;19;20003;-71
2023/08/28 11:25:38;;;;;;;1.67;1.20;;;18.00;1.00;;;;;;7393680;19;20482;-69
2023/08/28 11:28:26;;;;;;;3.42;1.20;;;17.60;1.00;;;;;;7398571;19;20096;-70
2023/08/28 11:31:00;;;;;;;3.15;1.10;;;17.60;1.00;;;;;;7395739;19;20018;-71
2023/08/28 11:33:38;;;;;;;4.22;0.93;;;17.80;1.00;;;;;;7397068;19;20737;-69
2023/08/28 11:36:08;;;;;;;4.22;1.33;;;17.50;1.00;;;;;;7396682;19;20018;-70
2023/08/28 11:38:41;;;;;;;1.63;1.23;;;17.70;1.00;;;;;;7397311;19;20349;-71
2023/08/28 11:41:12;;;;;;;3.88;1.15;;;17.70;1.00;;;;;;7395259;19;20097;-69
2023/08/28 11:43:44;;;;;;;1.13;0.90;;;17.50;1.00;;;;;;7397223;19;20018;-71
2023/08/28 11:46:15;;;;;;;1.65;1.15;;;17.60;1.00;;;;;;7397044;19;20007;-71
2023/08/28 11:48:48;;;;;;;2.45;1.02;;;17.50;1.00;;;;;;7397337;19;20022;-71
2023/08/28 11:51:18;;;;;;;3.70;1.25;;;17.60;1.00;;;;;;7395291;19;20467;-71
2023/08/28 11:53:50;;;;;;;1.60;1.00;;;17.70;1.00;;;;;;7397308;19;20027;-70
2023/08/28 11:56:20;;;;;;;3.05;1.35;;;17.60;1.00;;;;;;7396156;19;20006;-71
2023/08/28 11:58:51;;;;;;;3.00;1.10;;;17.60;1.00;;;;;;7397098;19;20490;-70
2023/08/28 12:01:22;;;;;;;2.03;1.20;;;18.00;1.00;;;;;;7392963;19;20025;-69
2023/08/28 12:03:55;;;;;;;2.58;1.30;;;18.20;1.00;;;;;;7395998;19;20006;-69
2023/08/28 12:06:25;;;;;;;2.80;1.20;;;17.80;1.00;;;;;;7396091;19;20368;-69
2023/08/28 12:08:58;;;;;;;1.45;1.23;;;17.90;1.00;;;;;;7396192;19;20018;-69
2023/08/28 12:11:28;;;;;;;2.33;1.10;;;17.70;1.00;;;;;;7394686;19;20022;-68
2023/08/28 12:13:58;;;;;;;1.80;1.17;;;17.80;1.00;;;;;;7396001;19;20421;-70
2023/08/28 12:16:28;;;;;;;1.58;1.02;;;17.40;1.00;;;;;;7396672;19;20078;-68
2023/08/28 12:18:58;;;;;;;1.48;1.17;;;17.50;1.00;;;;;;7395333;19;20011;-69
2023/08/28 12:21:38;;;;;;;2.38;1.35;;;17.50;1.00;;;;;;7392578;19;20498;-67
2023/08/28 12:24:13;;;;;;;1.38;1.00;;;17.60;1.00;;;;;;7395475;19;20080;-67
2023/08/28 12:26:44;;;;;;;2.58;0.82;;;17.40;1.00;;;;;;7396226;19;20010;-68
2023/08/28 12:29:14;;;;;;;2.17;0.93;;;17.60;1.00;;;;;;7393987;19;20488;-69
2023/08/28 12:31:49;;;;;;;2.38;1.20;;;17.60;1.00;;;;;;7393384;19;20022;-70
2023/08/28 12:34:19;;;;;;;1.63;1.00;;;17.50;1.00;;;;;;7393621;19;20032;-69
2023/08/28 12:36:49;;;;;;;1.52;1.30;;;17.50;1.00;;;;;;7396492;19;20011;-68
2023/08/28 12:39:22;;;;;;;1.75;0.98;;;17.50;1.00;;;;;;7396067;19;20031;-69
2023/08/28 12:41:53;;;;;;;1.55;1.10;;;17.30;1.00;;;;;;7392225;19;20490;-69
2023/08/28 12:44:24;;;;;;;2.45;1.05;;;17.10;1.00;;;;;;7393514;19;20015;-69
2023/08/28 12:46:55;;;;;;;1.20;1.10;;;17.20;1.00;;;;;;7395043;19;20069;-68
2023/08/28 12:49:26;;;;;;;5.60;0.90;;;17.30;1.00;;;;;;7395239;19;20010;-70
2023/08/28 12:51:56;;;;;;;1.23;1.00;;;17.30;1.00;;;;;;7392721;19;20010;-69
2023/08/28 12:54:29;;;;;;;2.40;1.00;;;17.30;1.00;;;;;;7393922;19;20010;-69
2023/08/28 12:56:59;;;;;;;1.35;0.90;;;17.30;1.00;;;;;;7396181;19;20014;-70
2023/08/28 12:59:29;;;;;;;1.95;1.00;;;17.40;1.00;;;;;;7393837;19;20027;-71
2023/08/28 13:02:00;;;;;;;1.40;0.90;;;17.20;1.00;;;;;;7391816;19;20007;-70
2023/08/28 13:04:30;;;;;;;1.45;0.80;;;17.20;1.00;;;;;;7394233;19;20010;-70
2023/08/28 13:07:00;;;;;;;1.98;0.70;;;17.20;1.00;;;;;;7394785;19;20383;-71
2023/08/28 13:09:33;;;;;;;1.33;0.80;;;17.30;1.00;;;;;;7392717;19;20023;-70
2023/08/28 13:12:03;;;;;;;1.63;1.10;;;17.30;1.00;;;;;;7393631;19;20532;-72
2023/08/28 13:14:33;;;;;;;1.45;1.00;;;17.30;1.00;;;;;;7392922;19;20034;-71